Airfield :
LOGIN :

Register | Disclaimer

   EN    FR    IT 

 










Legend :    VFR   Marginal VFR   IFR   Intensive IFR   Very Intensive IFR
Visi :
Ceiling :
>= 8 km
>= 3000ft
5 to 8 km
1000 to 3000 ft
1500m to 5 km
500 to 1000 ft
800 to 1500m
200 to 500 ft
< 800m
< 200 ft
Symbols :   Thunderstorms  Fog  Heavy snow  Heavy precipitations  Wind > 20 kt
SIGMETs :     Misc.  Thunderstorms  Icing  Turbulence  Mountain Waves  Volcanic Ashes






- Airport Elevation : 436 ft
- IATA code : ANG


LFBU - Angoulême Brie Champniers

CURRENT METAR :
  • 060130Z AUTO 22007KT 170V260 9000 RA BKN033/// BKN042/// BKN086/// ///TCU 06/05 Q0996

EXPIRED METARs :
  • 060100Z AUTO 19007KT 9999 FEW005/// SCT140/// BKN170/// ///TCU 05/05 Q0996
  • 060030Z AUTO 18007KT 140V200 9999 OVC005 05/05 Q0996
  • 060000Z AUTO 17007KT 9999 OVC005 05/05 Q0996
  • 052330Z AUTO 17006KT 130V190 9999 OVC005 05/05 Q0996
  • 052300Z AUTO 18008KT 9999 OVC005 06/05 Q0997

TAF TAF LFBU
Valid from the 05 at 18:00 until the 06 at 18:00 UTC


051700Z 0518/0618 17010KT 9999 BKN015
TEMPO 0518/0610 3000 -RA OVC006
BECMG 0608/0610 26008KT
TEMPO 0610/0618 SHRA BKN020TCU



MET'MAP, your aeronautical weather chart ! - Copyright ORBIFLY December 2007 - Disclaimer

ORBIFLY MET'MAP TEAM :

Programming & Development : Alexandra Zaïnal
Concept & original design : Baudouin d'Aumeries
Assistance for programming : Marc-Olivier Méhu
Technical & hardware support : Manuel Goepfert

Contact : metmap@orbifly.com




SOURCES & CREDITS :

   NOAA